Terminal Aerodrome Forecast
Issued by NWS

Home | Current Version | Previous Version | Text Only | Print | Product List | Glossary On
Versions: 1 2 3 4 5 6 7 8 9 10 11 12 13 14 15
000
FTUS41 KBTV 051120
TAFSLK
TAF
KSLK 051120Z 0512/0612 25007KT P6SM SCT050
     FM060000 VRB03KT P6SM SKC
     FM060500 00000KT 3SM BR SKC
     FM060700 00000KT 1/2SM FG OVC002=

USA.gov is the U.S. government's official web portal to all federal, state and local government web resources and services.